createdAt,value
2022-09-04T00:01:04.383Z,98571.66
2022-09-04T00:03:40.618Z,98569.78
2022-09-04T00:06:13.366Z,98559.03
2022-09-04T00:08:58.248Z,98567.09
2022-09-04T00:11:39.274Z,98577.03
2022-09-04T00:14:12.190Z,98570.00
2022-09-04T00:16:43.763Z,98571.84
2022-09-04T00:19:17.790Z,98572.69
2022-09-04T00:21:49.854Z,98566.47
2022-09-04T00:24:20.068Z,98569.16
2022-09-04T00:26:54.501Z,98579.06
2022-09-04T00:29:28.682Z,98582.63
2022-09-04T00:32:02.639Z,98579.25
2022-09-04T00:35:05.862Z,98574.53
2022-09-04T00:37:38.216Z,98575.53
2022-09-04T00:40:11.221Z,98583.63
2022-09-04T00:42:53.681Z,98584.44
2022-09-04T00:45:30.396Z,98584.44
2022-09-04T00:48:34.653Z,98585.47
2022-09-04T00:51:18.236Z,98589.00
2022-09-04T00:54:11.689Z,98590.03
2022-09-04T00:57:04.170Z,98591.88
2022-09-04T01:00:04.666Z,98598.09
2022-09-04T01:02:43.067Z,98595.41
2022-09-04T01:05:20.509Z,98586.31
2022-09-04T01:07:56.836Z,98590.84
2022-09-04T01:10:37.527Z,98594.56
2022-09-04T01:13:13.044Z,98587.34
2022-09-04T01:15:45.801Z,98596.41
2022-09-04T01:18:18.061Z,98590.19
2022-09-04T01:21:01.518Z,98591.88
2022-09-04T01:23:46.605Z,98591.00
2022-09-04T01:26:21.020Z,98593.72
2022-09-04T01:29:00.210Z,98607.16
2022-09-04T01:31:36.659Z,98606.34
2022-09-04T01:34:18.705Z,98602.81
2022-09-04T01:36:50.809Z,98601.97
2022-09-04T01:39:22.283Z,98603.84
2022-09-04T01:41:54.514Z,98607.34
2022-09-04T01:44:23.865Z,98605.50
2022-09-04T01:47:18.545Z,98604.66
2022-09-04T01:49:52.408Z,98605.50
2022-09-04T01:52:38.951Z,98600.28
2022-09-04T01:55:14.350Z,98599.28
2022-09-04T01:58:02.735Z,98602.97
2022-09-04T02:00:34.641Z,98599.44
2022-09-04T02:03:10.316Z,98602.97
2022-09-04T02:05:48.739Z,98603.84
2022-09-04T02:08:55.819Z,98597.59
2022-09-04T02:11:28.115Z,98611.03
2022-09-04T02:14:16.045Z,98601.16
2022-09-04T02:16:58.864Z,98604.84
2022-09-04T02:19:43.573Z,98596.75
2022-09-04T02:22:21.520Z,98597.78
2022-09-04T02:24:55.058Z,98595.09
2022-09-04T02:27:28.179Z,98589.72
2022-09-04T02:30:03.049Z,98593.22
2022-09-04T02:32:38.681Z,98593.41
2022-09-04T02:35:14.542Z,98591.56
2022-09-04T02:37:54.277Z,98587.84
2022-09-04T02:40:28.689Z,98588.88
2022-09-04T02:43:10.401Z,98586.19
2022-09-04T02:45:47.475Z,98588.88
2022-09-04T02:48:24.662Z,98580.81
2022-09-04T02:51:14.459Z,98590.72
2022-09-04T02:53:48.229Z,98577.25
2022-09-04T02:56:27.083Z,98580.81
2022-09-04T02:59:13.285Z,98575.41
2022-09-04T03:01:52.100Z,98576.41
2022-09-04T03:04:27.953Z,98579.09
2022-09-04T03:07:02.985Z,98578.28
2022-09-04T03:09:37.699Z,98579.94
2022-09-04T03:12:26.482Z,98579.09
2022-09-04T03:15:03.738Z,98580.13
2022-09-04T03:17:47.525Z,98586.34
2022-09-04T03:20:21.225Z,98586.34
2022-09-04T03:22:54.201Z,98586.34
2022-09-04T03:25:56.032Z,98576.63
2022-09-04T03:28:37.024Z,98585.50
2022-09-04T03:31:25.553Z,98584.69
2022-09-04T03:34:25.335Z,98590.06
2022-09-04T03:37:15.804Z,98590.06
2022-09-04T03:39:56.016Z,98579.31
2022-09-04T03:42:33.221Z,98590.06
2022-09-04T03:45:14.043Z,98591.06
2022-09-04T03:47:50.089Z,98592.75
2022-09-04T03:50:28.509Z,98583.84
2022-09-04T03:53:02.411Z,98586.53
2022-09-04T03:55:56.906Z,98587.53
2022-09-04T03:58:29.383Z,98593.75
2022-09-04T04:01:04.639Z,98588.38
2022-09-04T04:03:55.997Z,98587.53
2022-09-04T04:06:32.373Z,98592.09
2022-09-04T04:09:32.791Z,98584.84
2022-09-04T04:12:28.212Z,98592.09
2022-09-04T04:15:07.973Z,98597.47
2022-09-04T04:18:05.947Z,98597.47
2022-09-04T04:20:43.263Z,98613.63
2022-09-04T04:23:58.438Z,98608.22
2022-09-04T04:26:44.127Z,98613.63
2022-09-04T04:29:38.669Z,98606.56
2022-09-04T04:32:31.391Z,98609.06
2022-09-04T04:35:17.655Z,98618.16
2022-09-04T04:38:03.178Z,98618.16
2022-09-04T04:40:49.414Z,98618.16
2022-09-04T04:43:23.576Z,98621.00
2022-09-04T04:45:56.450Z,98625.56
2022-09-04T04:48:57.806Z,98638.84
2022-09-04T04:51:44.580Z,98642.53
2022-09-04T04:54:36.814Z,98640.88
2022-09-04T04:57:14.962Z,98650.63
2022-09-04T04:59:49.214Z,98646.25
2022-09-04T05:02:23.775Z,98645.22
2022-09-04T05:05:03.641Z,98652.31
2022-09-04T05:07:38.240Z,98656.19
2022-09-04T05:10:18.635Z,98664.25
2022-09-04T05:13:00.526Z,98666.94
2022-09-04T05:15:48.469Z,98667.78
2022-09-04T05:18:32.512Z,98662.41
2022-09-04T05:21:08.235Z,98667.78
2022-09-04T05:23:41.146Z,98666.09
2022-09-04T05:26:15.951Z,98663.41
2022-09-04T05:28:55.121Z,98662.41
2022-09-04T05:31:41.142Z,98662.41
2022-09-04T05:34:16.624Z,98670.63
2022-09-04T05:36:54.359Z,98675.19
2022-09-04T05:39:30.738Z,98675.19
2022-09-04T05:42:14.148Z,98667.94
2022-09-04T05:44:59.039Z,98667.09
2022-09-04T05:47:35.996Z,98678.91
2022-09-04T05:50:45.623Z,98681.41
2022-09-04T05:53:35.334Z,98691.31
2022-09-04T05:56:29.308Z,98694.00
2022-09-04T05:59:28.162Z,98690.31
2022-09-04T06:02:27.069Z,98691.31
2022-09-04T06:05:12.952Z,98699.41
2022-09-04T06:07:47.399Z,98707.47
2022-09-04T06:10:19.375Z,98701.25
2022-09-04T06:13:21.778Z,98708.50
2022-09-04T06:15:59.976Z,98708.50
2022-09-04T06:18:45.693Z,98699.56
2022-09-04T06:21:50.997Z,98703.13
2022-09-04T06:24:37.454Z,98707.47
2022-09-04T06:27:20.706Z,98712.84
2022-09-04T06:30:08.978Z,98705.81
2022-09-04T06:33:13.672Z,98704.78
2022-09-04T06:36:19.542Z,98713.88
2022-09-04T06:39:03.488Z,98715.69
2022-09-04T06:41:47.748Z,98718.22
2022-09-04T06:44:21.660Z,98706.63
2022-09-04T06:46:57.960Z,98715.53
2022-09-04T06:49:35.217Z,98730.66
2022-09-04T06:52:15.836Z,98737.06
2022-09-04T06:54:54.498Z,98733.34
2022-09-04T06:57:54.624Z,98739.75
2022-09-04T07:00:23.695Z,98745.13
2022-09-04T07:03:20.664Z,98758.44
2022-09-04T07:05:55.988Z,98756.72
2022-09-04T07:08:39.121Z,98750.38
2022-09-04T07:11:31.295Z,98758.94
2022-09-04T07:14:28.491Z,98742.78
2022-09-04T07:17:05.379Z,98759.75
2022-09-04T07:20:02.578Z,98750.84
2022-09-04T07:23:04.250Z,98753.53
2022-09-04T07:25:45.622Z,98752.72
2022-09-04T07:28:49.139Z,98758.56
2022-09-04T07:31:21.524Z,98763.59
2022-09-04T07:33:57.050Z,98757.38
2022-09-04T07:36:33.284Z,98761.09
2022-09-04T07:39:08.834Z,98765.63
2022-09-04T07:41:45.770Z,98773.69
2022-09-04T07:44:18.930Z,98777.91
2022-09-04T07:46:53.664Z,98774.59
2022-09-04T07:49:30.830Z,98787.34
2022-09-04T07:52:16.167Z,98783.16
2022-09-04T07:55:03.666Z,98787.88
2022-09-04T07:58:09.886Z,98792.19
2022-09-04T08:00:44.919Z,98800.59
2022-09-04T08:03:54.640Z,98797.91
2022-09-04T08:06:27.953Z,98805.50
2022-09-04T08:09:17.726Z,98809.53
2022-09-04T08:12:29.122Z,98812.22
2022-09-04T08:15:05.949Z,98824.66
2022-09-04T08:17:50.043Z,98818.44
2022-09-04T08:20:33.269Z,98825.38
2022-09-04T08:23:10.883Z,98834.44
2022-09-04T08:25:52.283Z,98836.44
2022-09-04T08:28:57.325Z,98841.97
2022-09-04T08:31:31.394Z,98838.13
2022-09-04T08:35:04.193Z,98841.97
2022-09-04T08:37:38.507Z,98844.19
2022-09-04T08:41:18.369Z,98844.19
2022-09-04T08:44:44.215Z,98852.41
2022-09-04T08:47:46.264Z,98849.72
2022-09-04T08:50:27.549Z,98848.88
2022-09-04T08:53:32.505Z,98862.16
2022-09-04T08:56:27.503Z,98854.59
2022-09-04T08:59:59.362Z,98851.56
2022-09-04T09:03:34.386Z,98867.88
2022-09-04T09:06:58.766Z,98870.41
2022-09-04T09:10:19.913Z,98858.13
2022-09-04T09:13:18.905Z,98863.50
2022-09-04T09:16:07.499Z,98865.84
2022-09-04T09:18:40.670Z,98873.94
2022-09-04T09:21:11.629Z,98888.41
2022-09-04T09:23:52.198Z,98875.78
2022-09-04T09:26:26.810Z,98886.53
2022-09-04T09:29:39.778Z,98892.09
2022-09-04T09:33:04.286Z,98890.91
2022-09-04T09:36:04.823Z,98883.84
2022-09-04T09:39:09.806Z,98876.63
2022-09-04T09:42:22.421Z,98866.53
2022-09-04T09:45:28.060Z,98872.59
2022-09-04T09:48:40.971Z,98869.91
2022-09-04T09:52:08.615Z,98867.03
2022-09-04T09:55:26.863Z,98866.19
2022-09-04T09:58:46.402Z,98874.94
2022-09-04T10:01:40.160Z,98867.59
2022-09-04T10:04:40.192Z,98889.22
2022-09-04T10:08:19.196Z,98878.47
2022-09-04T10:11:54.219Z,98884.00
2022-09-04T10:15:14.808Z,98883.72
2022-09-04T10:18:25.785Z,98881.03
2022-09-04T10:21:26.947Z,98882.88
2022-09-04T10:24:27.677Z,98883.72
2022-09-04T10:27:16.552Z,98890.09
2022-09-04T10:30:00.672Z,98885.41
2022-09-04T10:33:18.855Z,98893.63
2022-09-04T10:35:58.495Z,98894.50
2022-09-04T10:38:59.974Z,98896.84
2022-09-04T10:42:00.375Z,98902.22
2022-09-04T10:44:51.588Z,98904.91
2022-09-04T10:47:43.382Z,98905.56
2022-09-04T10:51:01.970Z,98914.16
2022-09-04T10:54:07.843Z,98911.97
2022-09-04T10:56:39.651Z,98908.25
2022-09-04T10:59:31.761Z,98914.16
2022-09-04T11:03:08.178Z,98918.88
2022-09-04T11:06:31.750Z,98916.19
2022-09-04T11:09:28.778Z,98919.88
2022-09-04T11:12:48.233Z,98918.03
2022-09-04T11:16:01.440Z,98914.50
2022-09-04T11:19:34.300Z,98901.06
2022-09-04T11:22:44.920Z,98904.56
2022-09-04T11:25:47.896Z,98908.25
2022-09-04T11:28:41.337Z,98900.88
2022-09-04T11:31:26.432Z,98913.34
2022-09-04T11:34:46.903Z,98908.78
2022-09-04T11:38:00.841Z,98914.16
2022-09-04T11:41:31.343Z,98922.06
2022-09-04T11:44:51.076Z,98918.72
2022-09-04T11:48:02.373Z,98925.75
2022-09-04T11:51:16.596Z,98922.41
2022-09-04T11:54:21.242Z,98923.22
2022-09-04T11:57:04.803Z,98917.84
2022-09-04T12:00:11.861Z,98910.78
2022-09-04T12:03:27.777Z,98908.59
2022-09-04T12:06:14.702Z,98909.97
2022-09-04T12:09:21.216Z,98904.22
2022-09-04T12:12:36.618Z,98912.16
2022-09-04T12:15:51.510Z,98911.28
2022-09-04T12:18:55.311Z,98903.06
2022-09-04T12:22:01.596Z,98904.56
2022-09-04T12:25:45.126Z,98901.06
2022-09-04T12:29:09.276Z,98906.44
2022-09-04T12:31:58.262Z,98912.66
2022-09-04T12:34:56.131Z,98911.13
2022-09-04T12:37:48.578Z,98896.84
2022-09-04T12:40:35.816Z,98897.84
2022-09-04T12:43:20.296Z,98899.53
2022-09-04T12:45:58.482Z,98901.19
2022-09-04T12:48:38.362Z,98891.47
2022-09-04T12:51:12.354Z,98905.75
2022-09-04T12:54:14.565Z,98899.34
2022-09-04T12:56:49.281Z,98901.19
2022-09-04T12:59:36.325Z,98896.84
2022-09-04T13:02:10.485Z,98902.88
2022-09-04T13:04:47.723Z,98903.91
2022-09-04T13:07:27.843Z,98901.06
2022-09-04T13:10:02.901Z,98908.09
2022-09-04T13:12:36.619Z,98908.09
2022-09-04T13:15:22.431Z,98903.56
2022-09-04T13:17:58.661Z,98902.56
2022-09-04T13:20:35.137Z,98907.09
2022-09-04T13:23:17.719Z,98906.94
2022-09-04T13:26:02.192Z,98896.16
2022-09-04T13:28:38.606Z,98910.63
2022-09-04T13:31:33.571Z,98904.22
2022-09-04T13:34:11.045Z,98918.03
2022-09-04T13:36:49.577Z,98904.22
2022-09-04T13:39:40.787Z,98908.59
2022-09-04T13:42:48.540Z,98908.59
2022-09-04T13:45:23.359Z,98915.00
2022-09-04T13:47:55.231Z,98914.84
2022-09-04T13:50:29.391Z,98913.97
2022-09-04T13:52:59.730Z,98896.84
2022-09-04T13:55:30.745Z,98910.28
2022-09-04T13:58:10.622Z,98904.91
2022-09-04T14:00:45.906Z,98906.59
2022-09-04T14:03:19.087Z,98911.13
2022-09-04T14:05:49.173Z,98911.13
2022-09-04T14:08:18.930Z,98911.97
2022-09-04T14:11:13.181Z,98906.09
2022-09-04T14:13:56.365Z,98909.47
2022-09-04T14:16:25.303Z,98913.00
2022-09-04T14:19:16.356Z,98919.22
2022-09-04T14:22:09.465Z,98911.97
2022-09-04T14:24:42.259Z,98913.97
2022-09-04T14:27:15.200Z,98915.69
2022-09-04T14:29:55.906Z,98912.81
2022-09-04T14:32:32.299Z,98914.66
2022-09-04T14:35:08.741Z,98918.03
2022-09-04T14:38:15.082Z,98914.66
2022-09-04T14:40:49.243Z,98917.34
2022-09-04T14:43:22.692Z,98918.19
2022-09-04T14:46:07.078Z,98920.03
2022-09-04T14:48:40.690Z,98914.50
2022-09-04T14:51:17.218Z,98933.16
2022-09-04T14:53:51.454Z,98931.50
2022-09-04T14:56:26.663Z,98930.66
2022-09-04T14:58:59.093Z,98937.91
2022-09-04T15:01:29.780Z,98932.31
2022-09-04T15:04:00.510Z,98937.03
2022-09-04T15:06:37.846Z,98939.56
2022-09-04T15:09:28.500Z,98938.53
2022-09-04T15:12:21.109Z,98944.94
2022-09-04T15:14:47.602Z,98946.81
2022-09-04T15:17:16.933Z,98937.72
2022-09-04T15:19:48.076Z,98940.59
2022-09-04T15:22:19.946Z,98938.72
2022-09-04T15:24:55.979Z,98939.56
2022-09-04T15:27:29.007Z,98935.00
2022-09-04T15:30:05.477Z,98929.63
2022-09-04T15:32:39.832Z,98928.81
2022-09-04T15:35:17.874Z,98939.56
2022-09-04T15:37:48.578Z,98936.88
2022-09-04T15:40:28.607Z,98936.88
2022-09-04T15:43:03.674Z,98938.03
2022-09-04T15:45:41.500Z,98938.88
2022-09-04T15:48:26.548Z,98942.41
2022-09-04T15:51:11.871Z,98940.06
2022-09-04T15:53:42.248Z,98938.53
2022-09-04T15:56:31.337Z,98933.50
2022-09-04T15:59:05.983Z,98940.59
2022-09-04T16:01:43.452Z,98939.72
2022-09-04T16:04:17.378Z,98936.88
2022-09-04T16:06:48.081Z,98938.72
2022-09-04T16:09:23.585Z,98935.84
2022-09-04T16:12:02.843Z,98938.53
2022-09-04T16:14:34.665Z,98934.00
2022-09-04T16:17:13.713Z,98935.84
2022-09-04T16:19:46.921Z,98941.06
2022-09-04T16:22:27.368Z,98938.19
2022-09-04T16:24:59.022Z,98926.44
2022-09-04T16:27:29.856Z,98927.97
2022-09-04T16:30:01.648Z,98933.34
2022-09-04T16:32:34.286Z,98938.53
2022-09-04T16:35:05.001Z,98943.09
2022-09-04T16:37:37.658Z,98948.47
2022-09-04T16:40:19.969Z,98948.97
2022-09-04T16:42:51.544Z,98956.41
2022-09-04T16:45:23.114Z,98956.06
2022-09-04T16:47:55.590Z,98957.22
2022-09-04T16:50:27.918Z,98956.06
2022-09-04T16:53:13.749Z,98953.34
2022-09-04T16:55:48.881Z,98949.16
2022-09-04T16:58:35.460Z,98959.09
2022-09-04T17:01:14.715Z,98957.38
2022-09-04T17:04:13.204Z,98959.09
2022-09-04T17:07:02.584Z,98964.63
2022-09-04T17:09:48.031Z,98965.66
2022-09-04T17:12:24.050Z,98970.00
2022-09-04T17:14:57.370Z,98965.66
2022-09-04T17:17:31.300Z,98971.03
2022-09-04T17:20:09.037Z,98971.88
2022-09-04T17:28:54.142Z,98978.28
2022-09-04T17:28:58.403Z,98968.50
2022-09-04T17:29:08.634Z,98980.97
2022-09-04T17:31:45.597Z,98982.63
2022-09-04T17:38:53.724Z,98973.72
2022-09-04T17:40:50.972Z,98979.94
2022-09-04T17:41:28.922Z,98978.91
2022-09-04T17:43:22.723Z,98980.97
2022-09-04T17:45:54.573Z,98979.94
2022-09-04T17:48:27.668Z,98987.69
2022-09-04T17:50:58.852Z,98987.88
2022-09-04T17:53:33.393Z,98997.28
2022-09-04T17:56:08.244Z,99001.97
2022-09-04T17:58:39.625Z,99007.34
2022-09-04T18:01:14.935Z,99008.19
2022-09-04T18:04:20.329Z,99019.97
2022-09-04T18:06:46.599Z,99026.19
2022-09-04T18:09:26.695Z,99013.56
2022-09-04T18:12:03.459Z,99021.66
2022-09-04T18:14:37.593Z,99036.97
2022-09-04T18:17:12.577Z,99034.28
2022-09-04T18:19:46.276Z,99027.91
2022-09-04T18:22:32.041Z,99029.56
2022-09-04T18:25:15.851Z,99034.13
2022-09-04T18:28:11.765Z,99049.44
2022-09-04T18:37:07.652Z,99044.91
2022-09-04T18:37:19.847Z,99052.97
2022-09-04T18:37:20.411Z,99053.13
2022-09-04T18:39:50.805Z,99056.50
2022-09-04T18:50:29.343Z,99050.28
2022-09-04T18:50:34.627Z,99055.16
2022-09-04T18:50:35.749Z,99063.91
2022-09-04T18:51:21.084Z,99063.06
2022-09-04T18:53:54.189Z,99064.91
2022-09-04T18:56:26.555Z,99068.63
2022-09-04T18:59:00.630Z,99075.00
2022-09-04T19:01:37.977Z,99065.06
2022-09-04T19:04:41.195Z,99079.53
2022-09-04T19:07:11.326Z,99073.00
2022-09-04T19:10:10.836Z,99066.78
2022-09-04T19:12:48.040Z,99071.13
2022-09-04T19:15:45.956Z,99073.00
2022-09-04T19:18:26.873Z,99075.69
2022-09-04T19:21:16.718Z,99077.53
2022-09-04T19:23:50.112Z,99082.09
2022-09-04T19:26:27.196Z,99082.94
2022-09-04T19:28:57.347Z,99074.84
2022-09-04T19:31:31.408Z,99073.00
2022-09-04T19:34:04.420Z,99075.84
2022-09-04T19:36:38.361Z,99078.38
2022-09-04T19:45:55.352Z,99076.72
2022-09-04T19:46:19.485Z,99075.84
2022-09-04T19:46:26.125Z,99078.53
2022-09-04T19:48:01.187Z,99076.72
2022-09-04T19:53:21.748Z,99077.69
2022-09-04T19:53:43.772Z,99079.41
2022-09-04T19:56:27.243Z,99083.06
2022-09-04T19:59:03.852Z,99080.38
2022-09-04T20:01:42.120Z,99086.59
2022-09-04T20:04:12.341Z,99082.25
2022-09-04T20:06:47.328Z,99083.25
2022-09-04T20:09:20.406Z,99078.72
2022-09-04T20:11:51.445Z,99084.94
2022-09-04T20:14:25.298Z,99086.78
2022-09-04T20:17:08.874Z,99084.09
2022-09-04T20:19:41.075Z,99080.56
2022-09-04T20:22:17.521Z,99087.78
2022-09-04T20:25:01.682Z,99092.19
2022-09-04T20:27:33.504Z,99091.34
2022-09-04T20:30:11.284Z,99092.00
2022-09-04T20:32:45.013Z,99093.69
2022-09-04T20:35:33.368Z,99089.28
2022-09-04T20:38:23.005Z,99088.66
2022-09-04T20:40:54.898Z,99093.16
2022-09-04T20:43:31.835Z,99091.34
2022-09-04T20:52:20.501Z,99094.03
2022-09-04T20:52:49.125Z,99100.25
2022-09-04T20:53:06.686Z,99098.53
2022-09-04T20:55:18.822Z,99103.09
2022-09-04T21:03:05.212Z,99104.94
2022-09-04T21:03:21.230Z,99108.47
2022-09-04T21:04:23.762Z,99108.47
2022-09-04T21:07:11.052Z,99112.00
2022-09-04T21:09:54.852Z,99108.47
2022-09-04T21:12:33.667Z,99104.94
2022-09-04T21:15:10.441Z,99119.25
2022-09-04T21:18:20.610Z,99113.03
2022-09-04T21:21:03.195Z,99105.78
2022-09-04T21:24:03.168Z,99118.41
2022-09-04T21:26:52.578Z,99110.34
2022-09-04T21:29:34.788Z,99113.84
2022-09-04T21:32:30.144Z,99112.19
2022-09-04T21:35:07.754Z,99124.63
2022-09-04T21:37:43.701Z,99117.56
2022-09-04T21:40:51.322Z,99124.63
2022-09-04T21:43:49.472Z,99122.97
2022-09-04T21:46:51.777Z,99127.31
2022-09-04T21:49:58.042Z,99129.88
2022-09-04T21:52:57.301Z,99130.00
2022-09-04T22:00:54.853Z,99133.41
2022-09-04T22:02:40.981Z,99129.88
2022-09-04T22:02:43.610Z,99131.72
2022-09-04T22:04:49.642Z,99132.56
2022-09-04T22:10:08.432Z,99134.41
2022-09-04T22:13:42.850Z,99132.56
2022-09-04T22:13:47.955Z,99129.03
2022-09-04T22:16:29.514Z,99134.56
2022-09-04T22:19:29.576Z,99133.72
2022-09-04T22:22:03.793Z,99138.09
2022-09-04T22:25:07.517Z,99134.56
2022-09-04T22:28:43.825Z,99142.63
2022-09-04T22:31:37.675Z,99132.88
2022-09-04T22:34:26.214Z,99131.19
2022-09-04T22:37:16.912Z,99133.88
2022-09-04T22:40:00.401Z,99130.34
2022-09-04T22:42:47.191Z,99132.19
2022-09-04T22:46:08.285Z,99132.19
2022-09-04T22:49:14.686Z,99136.75
2022-09-04T22:52:21.489Z,99138.56
2022-09-04T22:54:58.971Z,99134.06
2022-09-04T22:57:35.430Z,99127.81
2022-09-04T23:00:14.439Z,99137.72
2022-09-04T23:03:12.357Z,99137.72
2022-09-04T23:09:04.535Z,99140.59
2022-09-04T23:13:43.965Z,99139.78
2022-09-04T23:13:57.990Z,99151.38
2022-09-04T23:16:11.744Z,99146.00
2022-09-04T23:23:03.099Z,99149.53
2022-09-04T23:26:42.534Z,99151.38
2022-09-04T23:26:52.820Z,99146.97
2022-09-04T23:27:59.268Z,99144.28
2022-09-04T23:30:27.977Z,99143.44
2022-09-04T23:33:42.811Z,99144.28
2022-09-04T23:36:33.615Z,99138.06
2022-09-04T23:39:36.555Z,99142.47
2022-09-04T23:42:30.519Z,99145.16
2022-09-04T23:45:30.688Z,99138.91
2022-09-04T23:48:21.224Z,99142.47
2022-09-04T23:50:53.873Z,99144.28
2022-09-04T23:53:32.028Z,99146.97
2022-09-04T23:56:17.808Z,99140.75
2022-09-04T23:59:21.417Z,99142.63
